Hurley, SD (57036)

4:50 PM CDT on May 04, 2015 (GMT -0500)
Turkey Ridge | | Change Station
CLOSE
Current Station
Personal Weather Station
Location: Freeman, SD
Elevation: 1644 ft
Nearby Weather Stations

Elev 1644 ft 43.26 °N, 97.36 °W | Updated 5 seconds ago

Mostly Cloudy
Mostly Cloudy
70.1 °F
Feels Like 76 °F
N
11.0
Wind Variable Wind from ENE
Gusts 11.0 mph

Today
High -- | Low -- °F
--% Chance of Precip.
Yesterday
High -- | Low -- °F
Precip. -- in
6:18 AM 8:33 PM
Waxing Gibbous, 99% visible
Pressure 30.10 in
Visibility 10.0 miles
Clouds Clear
Heat Index 76 °F
Dew Point 34 °F
Humidity 27%
Rainfall 0.00 in
Snow Depth Not available.
UV 6 out of 12
Pollen 10.50 out of 12
Air Quality Not available.
Flu Activity Sporadic
METAR KYKN 042135Z AUTO 07009G16KT 10SM CLR 22/01 A3010 RMK AO1

More Conditions Fewer Conditions

Pressure 30.10 in
Visibility 10.0 miles
Clouds Clear
Heat Index 76 °F
Dew Point 34 °F
Humidity 27%
Rainfall 0.00 in
Snow Depth Not available.
UV 6 out of 12
Pollen 10.50 out of 12
Air Quality Not available.
Flu Activity Sporadic
METAR KYKN 042135Z AUTO 07009G16KT 10SM CLR 22/01 A3010 RMK AO1

More Conditions Fewer Conditions

Nepal has a long way to go to dig out and rebuild from a devastating earthquake. We have teamed up with several charities and organizations to make contributing to the relief effort as easy as possible.
How you can help: Portlight Strategies | Red Cross

10-Day Weather Forecast

Almanac

Astronomy

May. 04, 2015 Rise Set
Actual Time
Civil Twilight
Nautical Twilight
Astronomical Twilight
Moon
Length of Visible Light
Length of Day
Tomorrow will be .
, % of the Moon is Illuminated

Today's Extremes

State Highs State Lows

Community

WunderPhotos

Upload Photos

1,818,707 photos uploaded!

WunderBlogs® & News

Nearby

Air Quality

  Air Quality AQ Index Pollutant
Not available.

Snow Depth

Station Depth Elevation

Earthquake Activity

City Distance Mag. Time & Date
Minimum magnitude displayed is 2.5.

Coastal Water Temperatures

Place Temperature

Stations

Nearby Weather Stations

Station Location Temp. Windchill Dew Point Humidity Wind Precip. Elev Updated Type